sensor_id;sensor_type;location;lat;lon;timestamp;P1;durP1;ratioP1;P2;durP2;ratioP2
66751;SDS011;53663;42.676;23.238;2024-02-04T00:01:52;7.28;;;3.63;;
66751;SDS011;53663;42.676;23.238;2024-02-04T00:04:27;6.35;;;2.90;;
66751;SDS011;53663;42.676;23.238;2024-02-04T00:07:18;5.63;;;2.88;;
66751;SDS011;53663;42.676;23.238;2024-02-04T00:09:50;4.78;;;2.95;;
66751;SDS011;53663;42.676;23.238;2024-02-04T00:12:31;8.07;;;3.00;;
66751;SDS011;53663;42.676;23.238;2024-02-04T00:15:21;6.85;;;3.10;;
66751;SDS011;53663;42.676;23.238;2024-02-04T00:18:43;8.38;;;3.25;;
66751;SDS011;53663;42.676;23.238;2024-02-04T00:21:34;5.65;;;3.13;;
66751;SDS011;53663;42.676;23.238;2024-02-04T00:24:16;4.05;;;2.90;;
66751;SDS011;53663;42.676;23.238;2024-02-04T00:26:44;5.43;;;2.85;;
66751;SDS011;53663;42.676;23.238;2024-02-04T00:29:13;6.30;;;3.30;;
66751;SDS011;53663;42.676;23.238;2024-02-04T00:32:02;6.20;;;2.88;;
66751;SDS011;53663;42.676;23.238;2024-02-04T00:34:36;4.57;;;2.90;;
66751;SDS011;53663;42.676;23.238;2024-02-04T00:37:22;5.50;;;3.08;;
66751;SDS011;53663;42.676;23.238;2024-02-04T00:40:07;3.83;;;2.53;;
66751;SDS011;53663;42.676;23.238;2024-02-04T00:43:00;4.43;;;2.80;;
66751;SDS011;53663;42.676;23.238;2024-02-04T00:45:34;6.50;;;3.22;;
66751;SDS011;53663;42.676;23.238;2024-02-04T00:48:33;4.20;;;2.50;;
66751;SDS011;53663;42.676;23.238;2024-02-04T00:51:08;5.90;;;3.15;;
66751;SDS011;53663;42.676;23.238;2024-02-04T00:53:39;4.55;;;3.03;;
66751;SDS011;53663;42.676;23.238;2024-02-04T00:56:12;4.57;;;2.72;;
66751;SDS011;53663;42.676;23.238;2024-02-04T00:58:50;6.72;;;3.13;;
66751;SDS011;53663;42.676;23.238;2024-02-04T01:01:47;9.60;;;2.97;;
66751;SDS011;53663;42.676;23.238;2024-02-04T01:05:34;5.82;;;2.85;;
66751;SDS011;53663;42.676;23.238;2024-02-04T01:08:10;6.40;;;2.85;;
66751;SDS011;53663;42.676;23.238;2024-02-04T01:10:35;5.07;;;2.65;;
66751;SDS011;53663;42.676;23.238;2024-02-04T01:13:12;3.80;;;2.60;;
66751;SDS011;53663;42.676;23.238;2024-02-04T01:16:07;4.82;;;2.50;;
66751;SDS011;53663;42.676;23.238;2024-02-04T01:18:41;4.25;;;2.80;;
66751;SDS011;53663;42.676;23.238;2024-02-04T01:21:45;5.22;;;2.90;;
66751;SDS011;53663;42.676;23.238;2024-02-04T01:24:40;4.40;;;2.70;;
66751;SDS011;53663;42.676;23.238;2024-02-04T01:28:09;4.30;;;2.60;;
66751;SDS011;53663;42.676;23.238;2024-02-04T01:31:09;5.80;;;2.67;;
66751;SDS011;53663;42.676;23.238;2024-02-04T01:37:24;5.25;;;3.20;;
66751;SDS011;53663;42.676;23.238;2024-02-04T01:39:55;5.22;;;2.67;;
66751;SDS011;53663;42.676;23.238;2024-02-04T01:43:20;4.03;;;2.47;;
66751;SDS011;53663;42.676;23.238;2024-02-04T01:45:57;5.60;;;2.83;;
66751;SDS011;53663;42.676;23.238;2024-02-04T01:49:46;3.70;;;2.42;;
66751;SDS011;53663;42.676;23.238;2024-02-04T01:52:20;7.43;;;2.38;;
66751;SDS011;53663;42.676;23.238;2024-02-04T01:54:46;5.00;;;2.78;;
66751;SDS011;53663;42.676;23.238;2024-02-04T01:57:14;4.43;;;2.47;;
66751;SDS011;53663;42.676;23.238;2024-02-04T01:59:49;4.32;;;2.55;;
66751;SDS011;53663;42.676;23.238;2024-02-04T02:02:42;4.00;;;2.72;;
66751;SDS011;53663;42.676;23.238;2024-02-04T02:05:10;4.65;;;2.80;;
66751;SDS011;53663;42.676;23.238;2024-02-04T02:07:53;4.05;;;2.60;;
66751;SDS011;53663;42.676;23.238;2024-02-04T02:10:30;6.10;;;2.88;;
66751;SDS011;53663;42.676;23.238;2024-02-04T02:13:32;5.20;;;2.72;;
66751;SDS011;53663;42.676;23.238;2024-02-04T02:16:27;4.72;;;2.97;;
66751;SDS011;53663;42.676;23.238;2024-02-04T02:19:21;5.65;;;2.45;;
66751;SDS011;53663;42.676;23.238;2024-02-04T02:22:30;7.82;;;2.67;;
66751;SDS011;53663;42.676;23.238;2024-02-04T02:25:44;4.32;;;2.55;;
66751;SDS011;53663;42.676;23.238;2024-02-04T02:28:28;5.13;;;2.72;;
66751;SDS011;53663;42.676;23.238;2024-02-04T02:31:26;5.75;;;2.67;;
66751;SDS011;53663;42.676;23.238;2024-02-04T02:34:33;3.97;;;2.35;;
66751;SDS011;53663;42.676;23.238;2024-02-04T02:40:25;5.75;;;2.75;;
66751;SDS011;53663;42.676;23.238;2024-02-04T02:43:38;4.53;;;2.60;;
66751;SDS011;53663;42.676;23.238;2024-02-04T02:46:26;7.25;;;2.85;;
66751;SDS011;53663;42.676;23.238;2024-02-04T02:49:26;8.00;;;2.78;;
66751;SDS011;53663;42.676;23.238;2024-02-04T02:52:17;4.93;;;2.58;;
66751;SDS011;53663;42.676;23.238;2024-02-04T02:54:47;7.07;;;2.70;;
66751;SDS011;53663;42.676;23.238;2024-02-04T02:57:56;4.47;;;2.70;;
66751;SDS011;53663;42.676;23.238;2024-02-04T03:00:47;4.55;;;2.75;;
66751;SDS011;53663;42.676;23.238;2024-02-04T03:03:53;6.65;;;2.92;;
66751;SDS011;53663;42.676;23.238;2024-02-04T03:06:21;4.30;;;2.65;;
66751;SDS011;53663;42.676;23.238;2024-02-04T03:09:34;4.40;;;2.50;;
66751;SDS011;53663;42.676;23.238;2024-02-04T03:12:48;6.32;;;3.35;;
66751;SDS011;53663;42.676;23.238;2024-02-04T03:15:45;3.88;;;2.33;;
66751;SDS011;53663;42.676;23.238;2024-02-04T03:19:04;7.60;;;3.08;;
66751;SDS011;53663;42.676;23.238;2024-02-04T03:21:53;8.25;;;2.97;;
66751;SDS011;53663;42.676;23.238;2024-02-04T03:25:24;5.40;;;2.80;;
66751;SDS011;53663;42.676;23.238;2024-02-04T03:31:38;6.47;;;2.80;;
66751;SDS011;53663;42.676;23.238;2024-02-04T03:35:01;4.18;;;2.67;;
66751;SDS011;53663;42.676;23.238;2024-02-04T03:37:47;4.85;;;2.40;;
66751;SDS011;53663;42.676;23.238;2024-02-04T03:40:34;6.78;;;2.78;;
66751;SDS011;53663;42.676;23.238;2024-02-04T03:43:21;5.70;;;3.08;;
66751;SDS011;53663;42.676;23.238;2024-02-04T03:49:18;4.43;;;2.75;;
66751;SDS011;53663;42.676;23.238;2024-02-04T03:52:15;4.57;;;2.70;;
66751;SDS011;53663;42.676;23.238;2024-02-04T03:55:40;4.32;;;2.38;;
66751;SDS011;53663;42.676;23.238;2024-02-04T04:01:46;3.25;;;2.22;;
66751;SDS011;53663;42.676;23.238;2024-02-04T04:04:41;3.38;;;2.50;;
66751;SDS011;53663;42.676;23.238;2024-02-04T04:07:56;4.30;;;2.40;;
66751;SDS011;53663;42.676;23.238;2024-02-04T04:10:30;4.82;;;2.35;;
66751;SDS011;53663;42.676;23.238;2024-02-04T04:13:11;3.35;;;2.13;;
66751;SDS011;53663;42.676;23.238;2024-02-04T04:16:01;4.18;;;2.50;;
66751;SDS011;53663;42.676;23.238;2024-02-04T04:19:00;4.70;;;2.50;;
66751;SDS011;53663;42.676;23.238;2024-02-04T04:23:01;3.65;;;2.40;;
66751;SDS011;53663;42.676;23.238;2024-02-04T04:27:00;2.80;;;2.22;;
66751;SDS011;53663;42.676;23.238;2024-02-04T04:37:27;3.78;;;2.30;;
66751;SDS011;53663;42.676;23.238;2024-02-04T04:45:28;3.05;;;2.20;;
66751;SDS011;53663;42.676;23.238;2024-02-04T04:53:24;3.75;;;2.28;;
66751;SDS011;53663;42.676;23.238;2024-02-04T05:05:31;3.55;;;2.03;;
66751;SDS011;53663;42.676;23.238;2024-02-04T05:08:38;3.75;;;1.80;;
66751;SDS011;53663;42.676;23.238;2024-02-04T05:12:42;5.63;;;2.53;;
66751;SDS011;53663;42.676;23.238;2024-02-04T05:16:00;4.78;;;2.20;;
66751;SDS011;53663;42.676;23.238;2024-02-04T05:31:07;3.05;;;2.13;;
66751;SDS011;53663;42.676;23.238;2024-02-04T05:34:37;3.65;;;2.30;;
66751;SDS011;53663;42.676;23.238;2024-02-04T05:38:11;4.88;;;2.80;;
66751;SDS011;53663;42.676;23.238;2024-02-04T05:41:53;4.78;;;2.55;;
66751;SDS011;53663;42.676;23.238;2024-02-04T05:45:19;4.60;;;2.63;;
66751;SDS011;53663;42.676;23.238;2024-02-04T05:48:04;4.75;;;2.25;;
66751;SDS011;53663;42.676;23.238;2024-02-04T05:51:23;4.30;;;2.33;;
66751;SDS011;53663;42.676;23.238;2024-02-04T05:54:06;4.47;;;2.30;;
66751;SDS011;53663;42.676;23.238;2024-02-04T05:57:36;4.28;;;2.40;;
66751;SDS011;53663;42.676;23.238;2024-02-04T06:00:37;5.72;;;2.92;;
66751;SDS011;53663;42.676;23.238;2024-02-04T06:03:53;5.15;;;2.50;;
66751;SDS011;53663;42.676;23.238;2024-02-04T06:07:14;3.85;;;2.15;;
66751;SDS011;53663;42.676;23.238;2024-02-04T06:10:49;5.55;;;2.78;;
66751;SDS011;53663;42.676;23.238;2024-02-04T06:13:56;3.85;;;2.38;;
66751;SDS011;53663;42.676;23.238;2024-02-04T06:16:59;5.20;;;2.65;;
66751;SDS011;53663;42.676;23.238;2024-02-04T06:20:05;5.10;;;2.95;;
66751;SDS011;53663;42.676;23.238;2024-02-04T06:23:45;4.45;;;2.60;;
66751;SDS011;53663;42.676;23.238;2024-02-04T06:27:05;3.20;;;2.60;;
66751;SDS011;53663;42.676;23.238;2024-02-04T06:30:18;6.60;;;2.78;;
66751;SDS011;53663;42.676;23.238;2024-02-04T06:33:17;6.03;;;3.50;;
66751;SDS011;53663;42.676;23.238;2024-02-04T06:39:15;4.47;;;2.50;;
66751;SDS011;53663;42.676;23.238;2024-02-04T06:41:43;4.60;;;2.40;;
66751;SDS011;53663;42.676;23.238;2024-02-04T06:44:38;5.22;;;2.67;;
66751;SDS011;53663;42.676;23.238;2024-02-04T06:47:24;4.38;;;2.47;;
66751;SDS011;53663;42.676;23.238;2024-02-04T06:51:14;3.65;;;2.35;;
66751;SDS011;53663;42.676;23.238;2024-02-04T06:54:22;4.07;;;2.42;;
66751;SDS011;53663;42.676;23.238;2024-02-04T06:57:55;3.22;;;2.20;;
66751;SDS011;53663;42.676;23.238;2024-02-04T07:00:42;3.70;;;2.25;;
66751;SDS011;53663;42.676;23.238;2024-02-04T07:03:15;4.47;;;2.67;;
66751;SDS011;53663;42.676;23.238;2024-02-04T07:05:44;3.95;;;2.08;;
66751;SDS011;53663;42.676;23.238;2024-02-04T07:08:15;5.85;;;2.35;;
66751;SDS011;53663;42.676;23.238;2024-02-04T07:39:39;8.07;;;2.50;;
66751;SDS011;53663;42.676;23.238;2024-02-04T07:43:27;6.03;;;2.60;;
66751;SDS011;53663;42.676;23.238;2024-02-04T07:51:30;7.75;;;2.30;;
66751;SDS011;53663;42.676;23.238;2024-02-04T07:55:33;8.18;;;2.20;;
66751;SDS011;53663;42.676;23.238;2024-02-04T08:00:03;3.35;;;2.20;;
66751;SDS011;53663;42.676;23.238;2024-02-04T08:30:44;7.57;;;2.13;;
66751;SDS011;53663;42.676;23.238;2024-02-04T08:34:09;2.38;;;1.83;;
66751;SDS011;53663;42.676;23.238;2024-02-04T08:48:57;2.45;;;2.00;;
66751;SDS011;53663;42.676;23.238;2024-02-04T08:53:05;4.45;;;1.80;;
66751;SDS011;53663;42.676;23.238;2024-02-04T09:08:55;3.38;;;2.00;;
66751;SDS011;53663;42.676;23.238;2024-02-04T09:11:20;3.78;;;1.63;;
66751;SDS011;53663;42.676;23.238;2024-02-04T09:13:49;4.88;;;1.92;;
66751;SDS011;53663;42.676;23.238;2024-02-04T09:16:31;2.50;;;1.70;;
66751;SDS011;53663;42.676;23.238;2024-02-04T09:19:12;3.42;;;1.88;;
66751;SDS011;53663;42.676;23.238;2024-02-04T09:21:40;2.90;;;1.90;;
66751;SDS011;53663;42.676;23.238;2024-02-04T09:24:07;5.57;;;2.53;;
66751;SDS011;53663;42.676;23.238;2024-02-04T09:29:26;6.50;;;2.65;;
66751;SDS011;53663;42.676;23.238;2024-02-04T09:32:01;4.38;;;2.33;;
66751;SDS011;53663;42.676;23.238;2024-02-04T09:34:27;5.72;;;2.28;;
66751;SDS011;53663;42.676;23.238;2024-02-04T09:36:55;3.05;;;2.00;;
66751;SDS011;53663;42.676;23.238;2024-02-04T09:39:40;4.63;;;2.33;;
66751;SDS011;53663;42.676;23.238;2024-02-04T09:48:25;6.78;;;2.53;;
66751;SDS011;53663;42.676;23.238;2024-02-04T09:50:59;5.65;;;2.60;;
66751;SDS011;53663;42.676;23.238;2024-02-04T09:56:34;6.72;;;3.70;;
66751;SDS011;53663;42.676;23.238;2024-02-04T09:59:02;4.38;;;2.67;;
66751;SDS011;53663;42.676;23.238;2024-02-04T10:01:28;7.15;;;2.80;;
66751;SDS011;53663;42.676;23.238;2024-02-04T10:03:54;3.08;;;2.40;;
66751;SDS011;53663;42.676;23.238;2024-02-04T10:06:19;4.75;;;2.38;;
66751;SDS011;53663;42.676;23.238;2024-02-04T10:08:45;5.55;;;2.60;;
66751;SDS011;53663;42.676;23.238;2024-02-04T10:11:11;7.00;;;2.70;;
66751;SDS011;53663;42.676;23.238;2024-02-04T10:13:46;9.38;;;3.50;;
66751;SDS011;53663;42.676;23.238;2024-02-04T10:16:14;6.53;;;2.75;;
66751;SDS011;53663;42.676;23.238;2024-02-04T10:18:47;3.80;;;2.00;;
66751;SDS011;53663;42.676;23.238;2024-02-04T10:21:36;2.85;;;1.92;;
66751;SDS011;53663;42.676;23.238;2024-02-04T10:24:06;2.00;;;1.73;;
66751;SDS011;53663;42.676;23.238;2024-02-04T10:29:09;7.65;;;3.40;;
66751;SDS011;53663;42.676;23.238;2024-02-04T10:31:54;4.30;;;2.55;;
66751;SDS011;53663;42.676;23.238;2024-02-04T10:34:26;4.68;;;2.55;;
66751;SDS011;53663;42.676;23.238;2024-02-04T10:36:58;6.57;;;3.67;;
66751;SDS011;53663;42.676;23.238;2024-02-04T10:39:23;13.02;;;5.55;;
66751;SDS011;53663;42.676;23.238;2024-02-04T10:41:50;16.15;;;6.75;;
66751;SDS011;53663;42.676;23.238;2024-02-04T10:44:23;10.55;;;4.72;;
66751;SDS011;53663;42.676;23.238;2024-02-04T10:46:50;2.73;;;1.87;;
66751;SDS011;53663;42.676;23.238;2024-02-04T10:49:20;6.20;;;2.70;;
66751;SDS011;53663;42.676;23.238;2024-02-04T10:51:47;7.22;;;2.78;;
66751;SDS011;53663;42.676;23.238;2024-02-04T10:54:14;5.95;;;2.78;;
66751;SDS011;53663;42.676;23.238;2024-02-04T10:57:02;12.40;;;2.63;;
66751;SDS011;53663;42.676;23.238;2024-02-04T10:59:33;4.15;;;2.10;;
66751;SDS011;53663;42.676;23.238;2024-02-04T11:01:59;3.08;;;1.92;;
66751;SDS011;53663;42.676;23.238;2024-02-04T11:04:25;3.78;;;1.90;;
66751;SDS011;53663;42.676;23.238;2024-02-04T11:06:52;4.50;;;2.13;;
66751;SDS011;53663;42.676;23.238;2024-02-04T11:09:19;6.93;;;2.67;;
66751;SDS011;53663;42.676;23.238;2024-02-04T11:11:45;2.30;;;1.88;;
66751;SDS011;53663;42.676;23.238;2024-02-04T11:14:12;2.78;;;1.83;;
66751;SDS011;53663;42.676;23.238;2024-02-04T11:19:56;4.97;;;2.60;;
66751;SDS011;53663;42.676;23.238;2024-02-04T11:28:04;5.60;;;2.33;;
66751;SDS011;53663;42.676;23.238;2024-02-04T11:30:34;5.53;;;2.15;;
66751;SDS011;53663;42.676;23.238;2024-02-04T11:33:01;9.00;;;2.63;;
66751;SDS011;53663;42.676;23.238;2024-02-04T11:35:28;5.20;;;2.25;;
66751;SDS011;53663;42.676;23.238;2024-02-04T11:37:54;7.15;;;2.42;;
66751;SDS011;53663;42.676;23.238;2024-02-04T11:40:20;2.88;;;1.70;;
66751;SDS011;53663;42.676;23.238;2024-02-04T11:42:48;3.45;;;1.70;;
66751;SDS011;53663;42.676;23.238;2024-02-04T11:45:14;12.40;;;2.83;;
66751;SDS011;53663;42.676;23.238;2024-02-04T11:47:40;7.22;;;2.60;;
66751;SDS011;53663;42.676;23.238;2024-02-04T11:50:06;8.02;;;2.63;;
66751;SDS011;53663;42.676;23.238;2024-02-04T11:52:32;2.05;;;1.70;;
66751;SDS011;53663;42.676;23.238;2024-02-04T11:55:00;2.17;;;1.50;;
66751;SDS011;53663;42.676;23.238;2024-02-04T11:57:27;3.38;;;1.58;;
66751;SDS011;53663;42.676;23.238;2024-02-04T11:59:54;4.30;;;1.70;;
66751;SDS011;53663;42.676;23.238;2024-02-04T12:02:28;3.13;;;1.80;;
66751;SDS011;53663;42.676;23.238;2024-02-04T12:05:00;2.03;;;1.63;;
66751;SDS011;53663;42.676;23.238;2024-02-04T12:07:26;2.65;;;1.35;;
66751;SDS011;53663;42.676;23.238;2024-02-04T12:09:52;3.55;;;1.70;;
66751;SDS011;53663;42.676;23.238;2024-02-04T12:12:18;2.35;;;1.50;;
66751;SDS011;53663;42.676;23.238;2024-02-04T12:14:44;3.58;;;1.83;;
66751;SDS011;53663;42.676;23.238;2024-02-04T12:17:11;1.60;;;1.50;;
66751;SDS011;53663;42.676;23.238;2024-02-04T12:19:37;3.25;;;1.70;;
66751;SDS011;53663;42.676;23.238;2024-02-04T12:22:06;3.15;;;1.70;;
66751;SDS011;53663;42.676;23.238;2024-02-04T12:24:35;1.92;;;1.58;;
66751;SDS011;53663;42.676;23.238;2024-02-04T12:27:02;2.63;;;1.50;;
66751;SDS011;53663;42.676;23.238;2024-02-04T12:29:29;3.97;;;1.85;;
66751;SDS011;53663;42.676;23.238;2024-02-04T12:31:58;6.55;;;2.20;;
66751;SDS011;53663;42.676;23.238;2024-02-04T12:34:28;2.50;;;1.58;;
66751;SDS011;53663;42.676;23.238;2024-02-04T12:36:57;2.10;;;1.70;;
66751;SDS011;53663;42.676;23.238;2024-02-04T12:39:25;3.85;;;1.65;;
66751;SDS011;53663;42.676;23.238;2024-02-04T12:41:51;3.20;;;1.70;;
66751;SDS011;53663;42.676;23.238;2024-02-04T12:44:17;4.03;;;1.90;;
66751;SDS011;53663;42.676;23.238;2024-02-04T12:46:43;3.35;;;1.73;;
66751;SDS011;53663;42.676;23.238;2024-02-04T12:49:09;3.47;;;2.20;;
66751;SDS011;53663;42.676;23.238;2024-02-04T12:51:35;5.90;;;1.80;;
66751;SDS011;53663;42.676;23.238;2024-02-04T12:56:39;3.22;;;1.92;;
66751;SDS011;53663;42.676;23.238;2024-02-04T12:59:09;2.80;;;1.95;;
66751;SDS011;53663;42.676;23.238;2024-02-04T13:01:38;3.00;;;2.08;;
66751;SDS011;53663;42.676;23.238;2024-02-04T13:04:04;3.72;;;2.10;;
66751;SDS011;53663;42.676;23.238;2024-02-04T13:06:31;3.33;;;1.70;;
66751;SDS011;53663;42.676;23.238;2024-02-04T13:08:57;1.92;;;1.60;;
66751;SDS011;53663;42.676;23.238;2024-02-04T13:11:24;2.33;;;2.00;;
66751;SDS011;53663;42.676;23.238;2024-02-04T13:13:50;2.05;;;1.52;;
66751;SDS011;53663;42.676;23.238;2024-02-04T13:16:16;4.82;;;1.77;;
66751;SDS011;53663;42.676;23.238;2024-02-04T13:18:44;1.63;;;1.52;;
66751;SDS011;53663;42.676;23.238;2024-02-04T13:21:16;2.40;;;1.75;;
66751;SDS011;53663;42.676;23.238;2024-02-04T13:23:45;2.10;;;1.80;;
66751;SDS011;53663;42.676;23.238;2024-02-04T13:26:10;4.07;;;1.90;;
66751;SDS011;53663;42.676;23.238;2024-02-04T13:28:37;5.10;;;2.10;;
66751;SDS011;53663;42.676;23.238;2024-02-04T13:31:04;2.97;;;1.92;;
66751;SDS011;53663;42.676;23.238;2024-02-04T13:33:30;4.00;;;2.00;;
66751;SDS011;53663;42.676;23.238;2024-02-04T13:35:55;6.40;;;2.03;;
66751;SDS011;53663;42.676;23.238;2024-02-04T13:38:21;4.75;;;2.40;;
66751;SDS011;53663;42.676;23.238;2024-02-04T13:40:46;4.03;;;2.67;;
66751;SDS011;53663;42.676;23.238;2024-02-04T13:43:12;7.65;;;3.33;;
66751;SDS011;53663;42.676;23.238;2024-02-04T13:45:37;3.33;;;2.22;;
66751;SDS011;53663;42.676;23.238;2024-02-04T13:48:03;2.80;;;2.10;;
66751;SDS011;53663;42.676;23.238;2024-02-04T13:50:29;2.83;;;1.65;;
66751;SDS011;53663;42.676;23.238;2024-02-04T13:52:54;4.22;;;1.90;;
66751;SDS011;53663;42.676;23.238;2024-02-04T13:55:22;3.83;;;2.38;;
66751;SDS011;53663;42.676;23.238;2024-02-04T13:57:47;6.57;;;3.90;;
66751;SDS011;53663;42.676;23.238;2024-02-04T14:00:13;7.22;;;3.67;;
66751;SDS011;53663;42.676;23.238;2024-02-04T14:02:39;5.07;;;2.40;;
66751;SDS011;53663;42.676;23.238;2024-02-04T14:05:04;5.07;;;2.22;;
66751;SDS011;53663;42.676;23.238;2024-02-04T14:07:30;6.57;;;2.50;;
66751;SDS011;53663;42.676;23.238;2024-02-04T14:09:56;7.10;;;3.13;;
66751;SDS011;53663;42.676;23.238;2024-02-04T14:12:24;3.97;;;2.58;;
66751;SDS011;53663;42.676;23.238;2024-02-04T14:14:49;10.15;;;3.97;;
66751;SDS011;53663;42.676;23.238;2024-02-04T14:17:19;6.05;;;3.30;;
66751;SDS011;53663;42.676;23.238;2024-02-04T14:19:45;4.88;;;2.65;;
66751;SDS011;53663;42.676;23.238;2024-02-04T14:22:17;13.68;;;5.30;;
66751;SDS011;53663;42.676;23.238;2024-02-04T14:24:43;10.00;;;3.75;;
66751;SDS011;53663;42.676;23.238;2024-02-04T14:27:12;4.30;;;2.35;;
66751;SDS011;53663;42.676;23.238;2024-02-04T14:29:39;9.07;;;3.50;;
66751;SDS011;53663;42.676;23.238;2024-02-04T14:32:05;8.07;;;3.22;;
66751;SDS011;53663;42.676;23.238;2024-02-04T14:34:34;12.18;;;5.90;;
66751;SDS011;53663;42.676;23.238;2024-02-04T14:39:58;7.97;;;4.15;;
66751;SDS011;53663;42.676;23.238;2024-02-04T14:42:33;6.25;;;3.30;;
66751;SDS011;53663;42.676;23.238;2024-02-04T14:47:44;8.75;;;4.05;;
66751;SDS011;53663;42.676;23.238;2024-02-04T14:50:10;4.28;;;2.20;;
66751;SDS011;53663;42.676;23.238;2024-02-04T14:52:36;4.50;;;2.80;;
66751;SDS011;53663;42.676;23.238;2024-02-04T14:55:02;3.75;;;1.58;;
66751;SDS011;53663;42.676;23.238;2024-02-04T14:57:33;2.95;;;1.70;;
66751;SDS011;53663;42.676;23.238;2024-02-04T14:59:59;4.05;;;2.50;;
66751;SDS011;53663;42.676;23.238;2024-02-04T15:02:25;10.82;;;4.53;;
66751;SDS011;53663;42.676;23.238;2024-02-04T15:04:51;7.05;;;4.07;;
66751;SDS011;53663;42.676;23.238;2024-02-04T15:07:18;8.48;;;3.80;;
66751;SDS011;53663;42.676;23.238;2024-02-04T15:09:45;5.95;;;3.17;;
66751;SDS011;53663;42.676;23.238;2024-02-04T15:12:15;4.05;;;2.67;;
66751;SDS011;53663;42.676;23.238;2024-02-04T15:14:43;3.33;;;2.20;;
66751;SDS011;53663;42.676;23.238;2024-02-04T15:17:09;2.92;;;2.00;;
66751;SDS011;53663;42.676;23.238;2024-02-04T15:19:34;3.85;;;2.30;;
66751;SDS011;53663;42.676;23.238;2024-02-04T15:22:02;4.75;;;2.47;;
66751;SDS011;53663;42.676;23.238;2024-02-04T15:24:28;7.32;;;3.20;;
66751;SDS011;53663;42.676;23.238;2024-02-04T15:26:55;6.15;;;3.50;;
66751;SDS011;53663;42.676;23.238;2024-02-04T15:29:29;7.55;;;4.00;;
66751;SDS011;53663;42.676;23.238;2024-02-04T15:32:01;6.82;;;3.92;;
66751;SDS011;53663;42.676;23.238;2024-02-04T15:34:28;5.00;;;3.17;;
66751;SDS011;53663;42.676;23.238;2024-02-04T15:36:58;6.20;;;3.17;;
66751;SDS011;53663;42.676;23.238;2024-02-04T15:39:24;5.50;;;3.20;;
66751;SDS011;53663;42.676;23.238;2024-02-04T15:41:50;5.28;;;2.75;;
66751;SDS011;53663;42.676;23.238;2024-02-04T15:44:15;4.53;;;2.92;;
66751;SDS011;53663;42.676;23.238;2024-02-04T15:46:41;3.60;;;2.42;;
66751;SDS011;53663;42.676;23.238;2024-02-04T15:49:11;7.63;;;2.40;;
66751;SDS011;53663;42.676;23.238;2024-02-04T15:54:05;6.80;;;3.33;;
66751;SDS011;53663;42.676;23.238;2024-02-04T15:56:32;5.85;;;3.13;;
66751;SDS011;53663;42.676;23.238;2024-02-04T15:59:04;3.72;;;2.58;;
66751;SDS011;53663;42.676;23.238;2024-02-04T16:01:37;2.90;;;2.20;;
66751;SDS011;53663;42.676;23.238;2024-02-04T16:04:05;5.90;;;2.72;;
66751;SDS011;53663;42.676;23.238;2024-02-04T16:06:34;3.67;;;2.58;;
66751;SDS011;53663;42.676;23.238;2024-02-04T16:09:00;6.93;;;3.05;;
66751;SDS011;53663;42.676;23.238;2024-02-04T16:11:26;9.15;;;3.08;;
66751;SDS011;53663;42.676;23.238;2024-02-04T16:13:57;4.88;;;3.20;;
66751;SDS011;53663;42.676;23.238;2024-02-04T16:16:32;6.80;;;3.92;;
66751;SDS011;53663;42.676;23.238;2024-02-04T16:19:00;9.65;;;5.75;;
66751;SDS011;53663;42.676;23.238;2024-02-04T16:21:29;11.63;;;5.68;;
66751;SDS011;53663;42.676;23.238;2024-02-04T16:24:00;11.15;;;6.00;;
66751;SDS011;53663;42.676;23.238;2024-02-04T16:26:26;16.83;;;5.93;;
66751;SDS011;53663;42.676;23.238;2024-02-04T16:28:52;13.63;;;4.78;;
66751;SDS011;53663;42.676;23.238;2024-02-04T16:31:22;9.95;;;5.18;;
66751;SDS011;53663;42.676;23.238;2024-02-04T16:33:55;15.68;;;6.93;;
66751;SDS011;53663;42.676;23.238;2024-02-04T16:36:27;18.30;;;7.35;;
66751;SDS011;53663;42.676;23.238;2024-02-04T16:38:53;13.55;;;6.97;;
66751;SDS011;53663;42.676;23.238;2024-02-04T16:41:21;20.13;;;11.10;;
66751;SDS011;53663;42.676;23.238;2024-02-04T16:43:47;29.42;;;14.77;;
66751;SDS011;53663;42.676;23.238;2024-02-04T16:46:15;30.00;;;16.85;;
66751;SDS011;53663;42.676;23.238;2024-02-04T16:48:53;35.83;;;17.15;;
66751;SDS011;53663;42.676;23.238;2024-02-04T16:51:19;41.83;;;16.00;;
66751;SDS011;53663;42.676;23.238;2024-02-04T16:53:54;33.72;;;15.10;;
66751;SDS011;53663;42.676;23.238;2024-02-04T16:56:30;45.38;;;20.15;;
66751;SDS011;53663;42.676;23.238;2024-02-04T16:58:56;53.20;;;23.90;;
66751;SDS011;53663;42.676;23.238;2024-02-04T17:01:25;51.90;;;21.30;;
66751;SDS011;53663;42.676;23.238;2024-02-04T17:03:51;59.00;;;22.88;;
66751;SDS011;53663;42.676;23.238;2024-02-04T17:06:20;46.22;;;18.58;;
66751;SDS011;53663;42.676;23.238;2024-02-04T17:08:46;40.35;;;17.88;;
66751;SDS011;53663;42.676;23.238;2024-02-04T17:11:12;31.17;;;14.50;;
66751;SDS011;53663;42.676;23.238;2024-02-04T17:13:37;30.00;;;11.73;;
66751;SDS011;53663;42.676;23.238;2024-02-04T17:16:28;20.40;;;9.15;;
66751;SDS011;53663;42.676;23.238;2024-02-04T17:19:01;22.20;;;7.88;;
66751;SDS011;53663;42.676;23.238;2024-02-04T17:21:38;21.42;;;8.25;;
66751;SDS011;53663;42.676;23.238;2024-02-04T17:24:09;27.13;;;11.50;;
66751;SDS011;53663;42.676;23.238;2024-02-04T17:26:39;20.60;;;7.80;;
66751;SDS011;53663;42.676;23.238;2024-02-04T17:29:05;7.80;;;4.05;;
66751;SDS011;53663;42.676;23.238;2024-02-04T17:31:31;5.47;;;2.90;;
66751;SDS011;53663;42.676;23.238;2024-02-04T17:33:58;10.40;;;3.17;;
66751;SDS011;53663;42.676;23.238;2024-02-04T17:36:25;6.72;;;3.70;;
66751;SDS011;53663;42.676;23.238;2024-02-04T17:38:50;9.90;;;4.68;;
66751;SDS011;53663;42.676;23.238;2024-02-04T17:41:16;4.50;;;2.47;;
66751;SDS011;53663;42.676;23.238;2024-02-04T17:43:43;5.05;;;2.42;;
66751;SDS011;53663;42.676;23.238;2024-02-04T17:46:09;4.63;;;2.40;;
66751;SDS011;53663;42.676;23.238;2024-02-04T17:48:35;3.45;;;2.28;;
66751;SDS011;53663;42.676;23.238;2024-02-04T17:51:01;3.38;;;2.40;;
66751;SDS011;53663;42.676;23.238;2024-02-04T17:53:26;3.90;;;2.45;;
66751;SDS011;53663;42.676;23.238;2024-02-04T17:55:52;3.75;;;2.30;;
66751;SDS011;53663;42.676;23.238;2024-02-04T17:58:19;5.18;;;2.75;;
66751;SDS011;53663;42.676;23.238;2024-02-04T18:00:45;5.63;;;2.88;;
66751;SDS011;53663;42.676;23.238;2024-02-04T18:03:10;6.97;;;3.20;;
66751;SDS011;53663;42.676;23.238;2024-02-04T19:08:57;8.00;;;3.30;;
66751;SDS011;53663;42.676;23.238;2024-02-04T19:11:28;5.18;;;3.05;;
66751;SDS011;53663;42.676;23.238;2024-02-04T19:13:54;4.63;;;2.53;;
66751;SDS011;53663;42.676;23.238;2024-02-04T19:16:22;4.80;;;2.97;;
66751;SDS011;53663;42.676;23.238;2024-02-04T19:18:48;6.78;;;3.53;;
66751;SDS011;53663;42.676;23.238;2024-02-04T19:21:14;6.57;;;3.40;;
66751;SDS011;53663;42.676;23.238;2024-02-04T19:23:41;8.43;;;3.75;;
66751;SDS011;53663;42.676;23.238;2024-02-04T19:26:10;5.90;;;3.42;;
66751;SDS011;53663;42.676;23.238;2024-02-04T19:28:38;6.97;;;3.00;;
66751;SDS011;53663;42.676;23.238;2024-02-04T19:31:04;12.07;;;4.53;;
66751;SDS011;53663;42.676;23.238;2024-02-04T19:33:29;8.57;;;4.40;;
66751;SDS011;53663;42.676;23.238;2024-02-04T19:35:55;11.65;;;6.10;;
66751;SDS011;53663;42.676;23.238;2024-02-04T19:38:21;7.50;;;3.22;;
66751;SDS011;53663;42.676;23.238;2024-02-04T19:40:53;8.18;;;3.58;;
66751;SDS011;53663;42.676;23.238;2024-02-04T19:43:18;5.43;;;3.10;;
66751;SDS011;53663;42.676;23.238;2024-02-04T19:45:44;7.03;;;3.30;;
66751;SDS011;53663;42.676;23.238;2024-02-04T19:48:10;5.45;;;2.90;;
66751;SDS011;53663;42.676;23.238;2024-02-04T19:50:36;5.30;;;2.75;;
66751;SDS011;53663;42.676;23.238;2024-02-04T19:53:02;4.53;;;2.50;;